Time;durP1;ratioP1;P1;durP2;ratioP2;P2;SDS_P1;SDS_P2;PMS_P1;PMS_P2;Temp;Humidity;BMP_temperature;BMP_pressure;BME280_temperature;BME280_humidity;BME280_pressure;Samples;Min_cycle;Max_cycle;Signal;HPM_P1;HPM_P2
2022/05/22 00:01:42;;;;;;;1.17;0.53;;;;;;;;;;20292516;29;20229;-73
2022/05/22 00:11:44;;;;;;;2.37;0.80;;;;;;;;;;20307172;29;20214;-73
2022/05/22 00:21:46;;;;;;;2.37;0.73;;;;;;;;;;20306166;29;20226;-73
2022/05/22 00:31:50;;;;;;;1.97;0.90;;;19.60;99.90;;;;;;20291619;28;20744;-73
2022/05/22 00:41:54;;;;;;;1.33;0.73;;;;;;;;;;20320732;28;20239;-73
2022/05/22 00:51:59;;;;;;;0.90;0.50;;;;;;;;;;20321205;29;20222;-73
2022/05/22 01:02:01;;;;;;;1.07;0.50;;;19.50;99.90;;;;;;20319928;29;20303;-73
2022/05/22 01:12:16;;;;;;;0.77;0.40;;;19.30;99.90;;;;;;20303863;28;20213;-73
2022/05/22 01:22:20;;;;;;;1.27;0.60;;;;;;;;;;20318233;28;20280;-70
2022/05/22 01:32:24;;;;;;;1.00;0.60;;;;;;;;;;20287395;29;20295;-71
2022/05/22 01:42:26;;;;;;;1.77;0.70;;;;;;;;;;20279779;29;20228;-71
2022/05/22 01:52:28;;;;;;;0.80;0.60;;;;;;;;;;20301217;29;20224;-71
2022/05/22 02:02:30;;;;;;;0.87;0.57;;;;;;;;;;20300876;28;20219;-71
2022/05/22 02:12:34;;;;;;;1.70;0.80;;;;;;;;;;20284863;29;20269;-70
2022/05/22 02:22:44;;;;;;;1.13;0.70;;;18.40;99.90;;;;;;20284710;28;20310;-71
2022/05/22 02:32:46;;;;;;;1.47;0.80;;;;;;;;;;20298958;29;20211;-71
2022/05/22 02:42:50;;;;;;;0.70;0.50;;;;;;;;;;20283003;29;20304;-70
2022/05/22 02:52:57;;;;;;;1.10;0.63;;;;;;;;;;20317573;28;20253;-71
2022/05/22 03:03:04;;;;;;;1.07;0.80;;;;;;;;;;20297199;28;20231;-71
2022/05/22 03:13:06;;;;;;;1.63;0.80;;;;;;;;;;20311460;28;20228;-71
2022/05/22 03:23:12;;;;;;;1.23;0.60;;;;;;;;;;20296012;29;20222;-72
2022/05/22 03:33:16;;;;;;;3.33;0.93;;;;;;;;;;20309784;29;20210;-71
2022/05/22 03:43:25;;;;;;;0.70;0.70;;;;;;;;;;20295543;28;20267;-71
2022/05/22 03:53:27;;;;;;;1.70;0.80;;;;;;;;;;20307264;28;20215;-71
2022/05/22 04:03:30;;;;;;;1.53;1.07;;;;;;;;;;20307317;28;20281;-70
2022/05/22 04:13:33;;;;;;;1.43;0.53;;;;;;;;;;20307102;29;20249;-70
2022/05/22 04:33:56;;;;;;;1.57;0.70;;;;;;;;;;20308305;29;20222;-70
2022/05/22 04:43:58;;;;;;;2.70;0.73;;;;;;;;;;20305460;29;20214;-69
2022/05/22 04:54:02;;;;;;;3.03;0.77;;;;;;;;;;20320510;29;20215;-71
2022/05/22 05:04:14;;;;;;;0.90;0.70;;;;;;;;;;20305840;29;20215;-70
2022/05/22 05:14:31;;;;;;;2.17;0.90;;;;;;;;;;20304593;29;20219;-70
2022/05/22 05:24:35;;;;;;;0.77;0.60;;;;;;;;;;20318324;28;20702;-70
2022/05/22 05:34:37;;;;;;;1.43;0.70;;;;;;;;;;20317560;29;20300;-70
2022/05/22 05:44:57;;;;;;;1.40;0.80;;;;;;;;;;20390297;29;20221;-70
2022/05/22 05:55:06;;;;;;;1.33;0.70;;;;;;;;;;20314052;29;20223;-71
2022/05/22 06:05:34;;;;;;;1.53;0.90;;;;;;;;;;20303996;29;20597;-70
2022/05/22 06:15:46;;;;;;;4.07;0.80;;;;;;;;;;20316613;29;20247;-71
2022/05/22 06:25:50;;;;;;;1.67;0.80;;;;;;;;;;20316002;28;20664;-71
2022/05/22 06:36:13;;;;;;;0.90;0.70;;;19.30;99.90;;;;;;20394237;29;20218;-72
2022/05/22 06:46:45;;;;;;;1.10;0.80;;;;;;;;;;20352389;28;20223;-71
2022/05/22 06:57:20;;;;;;;1.30;0.90;;;;;;;;;;20318871;28;20238;-71
2022/05/22 07:07:42;;;;;;;1.60;1.00;;;;;;;;;;20309702;28;20887;-71
2022/05/22 07:18:11;;;;;;;1.90;1.00;;;;;;;;;;20313986;29;20268;-72
2022/05/22 07:28:41;;;;;;;1.40;0.83;;;;;;;;;;20295763;29;20265;-70
2022/05/22 07:39:01;;;;;;;1.37;0.90;;;;;;;;;;20404370;28;20279;-74
2022/05/22 08:00:20;;;;;;;1.23;0.80;;;;;;;;;;20322599;28;20648;-74
2022/05/22 08:10:27;;;;;;;2.47;1.30;;;;;;;;;;20315915;29;20304;-72
2022/05/22 08:20:37;;;;;;;1.40;0.80;;;21.50;99.90;;;;;;20301868;29;20237;-74
2022/05/22 08:30:44;;;;;;;1.73;1.23;;;;;;;;;;20298443;28;20217;-74
2022/05/22 08:40:58;;;;;;;2.40;1.40;;;;;;;;;;20341542;28;20322;-74
2022/05/22 08:51:01;;;;;;;2.93;1.40;;;22.30;99.90;;;;;;20316982;29;20221;-73
2022/05/22 09:01:17;;;;;;;2.47;1.30;;;22.40;99.90;;;;;;20318583;29;20303;-74
2022/05/22 09:11:50;;;;;;;1.63;0.88;;;22.70;98.00;;;;;;20319721;29;20214;-73
2022/05/22 09:22:07;;;;;;;1.53;0.80;;;;;;;;;;20317399;29;20216;-74
2022/05/22 09:32:09;;;;;;;2.03;0.82;;;;;;;;;;20317352;28;20222;-74
2022/05/22 09:42:22;;;;;;;1.63;0.90;;;23.30;99.80;;;;;;20300835;29;20305;-74
2022/05/22 09:52:42;;;;;;;1.80;0.50;;;;;;;;;;20300976;29;20678;-75
2022/05/22 10:03:04;;;;;;;3.45;0.60;;;;;;;;;;20298652;28;20226;-74
2022/05/22 10:13:12;;;;;;;0.77;0.40;;;;;;;;;;20296215;28;20282;-76
2022/05/22 10:23:52;;;;;;;1.52;0.50;;;24.40;84.10;;;;;;20298393;28;20234;-76
2022/05/22 10:34:07;;;;;;;0.85;0.40;;;;;;;;;;20349138;28;20767;-75
2022/05/22 10:44:11;;;;;;;0.80;0.40;;;;;;;;;;20284548;29;20232;-74
2022/05/22 10:54:22;;;;;;;1.90;0.50;;;;;;;;;;20296564;28;20231;-75
2022/05/22 11:04:37;;;;;;;0.40;0.30;;;24.90;89.90;;;;;;20296007;29;20366;-73
2022/05/22 11:14:41;;;;;;;1.60;0.50;;;25.00;86.70;;;;;;20314763;29;20219;-72
2022/05/22 11:24:58;;;;;;;1.05;0.50;;;;;;;;;;20309295;29;20282;-73
2022/05/22 11:35:00;;;;;;;0.93;0.52;;;;;;;;;;20353331;29;20623;-73
2022/05/22 11:45:17;;;;;;;0.85;0.30;;;25.60;82.30;;;;;;20389325;28;22148;-76
2022/05/22 11:55:29;;;;;;;0.30;0.20;;;;;;;;;;20347382;28;20240;-72
2022/05/22 12:05:40;;;;;;;0.50;0.30;;;;;;;;;;20296270;28;20219;-73
2022/05/22 12:15:57;;;;;;;0.98;0.40;;;25.90;68.10;;;;;;20316881;28;20230;-72
2022/05/22 12:26:00;;;;;;;0.98;0.45;;;;;;;;;;20336095;29;20200;-73
2022/05/22 12:36:04;;;;;;;0.70;0.40;;;25.80;71.00;;;;;;20319828;28;20224;-72
2022/05/22 12:46:10;;;;;;;0.60;0.30;;;26.00;80.20;;;;;;20306060;28;20284;-72
2022/05/22 12:56:18;;;;;;;0.57;0.40;;;;;;;;;;20289109;29;20691;-72
2022/05/22 13:06:26;;;;;;;1.02;0.50;;;26.60;75.20;;;;;;20288690;29;20290;-72
2022/05/22 13:16:47;;;;;;;0.75;0.50;;;26.30;78.20;;;;;;20334256;29;20299;-72
2022/05/22 13:27:21;;;;;;;1.98;0.70;;;;;;;;;;20384042;28;20244;-73
2022/05/22 13:37:31;;;;;;;1.30;0.63;;;26.30;81.70;;;;;;20349686;28;20282;-73
2022/05/22 13:47:52;;;;;;;1.45;0.80;;;;;;;;;;20393488;28;20274;-72
2022/05/22 13:58:11;;;;;;;1.67;0.75;;;26.40;82.70;;;;;;20394410;28;20586;-72
2022/05/22 14:08:20;;;;;;;1.88;0.88;;;26.80;77.00;;;;;;20409763;29;20221;-72
2022/05/22 14:18:33;;;;;;;0.77;0.50;;;26.10;83.10;;;;;;20377642;28;20220;-72
2022/05/22 14:28:43;;;;;;;1.42;0.85;;;26.00;83.80;;;;;;20391987;28;20272;-72
2022/05/22 14:38:47;;;;;;;0.30;0.30;;;26.00;82.60;;;;;;20341182;28;20283;-71
2022/05/22 14:48:53;;;;;;;0.40;0.32;;;25.80;79.20;;;;;;20305957;29;20259;-73
2022/05/22 14:59:00;;;;;;;1.15;0.30;;;;;;;;;;20295711;28;20698;-72
2022/05/22 15:09:04;;;;;;;1.00;0.40;;;25.70;84.90;;;;;;20296538;29;20283;-72
2022/05/22 15:29:45;;;;;;;2.70;0.50;;;;;;;;;;20310137;29;20758;-72
2022/05/22 15:39:48;;;;;;;0.50;0.30;;;;;;;;;;20377552;29;20621;-71
2022/05/22 16:00:29;;;;;;;0.60;0.50;;;;;;;;;;20390503;28;20287;-69
2022/05/22 16:10:31;;;;;;;0.77;0.50;;;25.30;78.90;;;;;;20368172;28;20278;-70
2022/05/22 16:20:33;;;;;;;0.65;0.40;;;25.20;87.00;;;;;;20320443;29;20299;-69
2022/05/22 16:30:35;;;;;;;1.08;0.40;;;;;;;;;;20320206;29;20692;-69
2022/05/22 16:40:39;;;;;;;1.48;0.47;;;;;;;;;;20378121;29;20228;-70
2022/05/22 17:01:08;;;;;;;0.77;0.32;;;;;;;;;;20383742;29;20237;-70
2022/05/22 17:11:25;;;;;;;1.08;0.60;;;24.90;86.90;;;;;;20396118;28;20289;-69
2022/05/22 17:21:28;;;;;;;0.95;0.50;;;;;;;;;;20317449;28;20230;-69
2022/05/22 17:31:30;;;;;;;0.70;0.50;;;;;;;;;;20333477;28;20644;-69
2022/05/22 17:41:33;;;;;;;0.63;0.40;;;;;;;;;;20297783;28;20793;-70
2022/05/22 17:51:36;;;;;;;0.47;0.30;;;;;;;;;;20279474;28;20248;-69
2022/05/22 18:01:38;;;;;;;0.68;0.50;;;;;;;;;;20299399;28;20287;-69
2022/05/22 18:22:10;;;;;;;0.77;0.35;;;24.30;86.00;;;;;;20468031;28;20697;-69
2022/05/22 18:32:33;;;;;;;0.30;0.30;;;;;;;;;;20315449;28;20244;-68
2022/05/22 18:42:43;;;;;;;0.68;0.47;;;24.00;96.50;;;;;;20286255;28;20288;-69
2022/05/22 18:52:45;;;;;;;0.47;0.30;;;;;;;;;;20275018;28;20285;-69
2022/05/22 19:02:48;;;;;;;0.35;0.30;;;;;;;;;;20276181;28;20297;-68
2022/05/22 19:12:50;;;;;;;0.85;0.40;;;;;;;;;;20292371;28;20222;-69
2022/05/22 19:22:55;;;;;;;0.55;0.40;;;;;;;;;;20273908;28;20857;-69
2022/05/22 19:33:02;;;;;;;1.13;0.45;;;;;;;;;;20270949;28;20292;-70
2022/05/22 19:53:25;;;;;;;2.58;0.60;;;;;;;;;;20715490;28;20709;-73
2022/05/22 20:03:27;;;;;;;1.58;0.40;;;;;;;;;;20719490;28;20227;-73
2022/05/22 20:13:29;;;;;;;1.42;0.43;;;;;;;;;;20722243;28;20216;-73
2022/05/22 20:23:32;;;;;;;0.80;0.60;;;;;;;;;;20723585;28;20568;-73
2022/05/22 20:33:36;;;;;;;0.70;0.50;;;;;;;;;;20736433;28;20430;-73
2022/05/22 20:43:40;;;;;;;0.85;0.47;;;;;;;;;;20734619;28;20232;-73
2022/05/22 20:53:44;;;;;;;1.30;0.60;;;;;;;;;;20734498;28;20617;-73
2022/05/22 21:03:46;;;;;;;0.98;0.50;;;;;;;;;;20731631;28;20622;-73
2022/05/22 21:13:47;;;;;;;1.02;0.50;;;;;;;;;;20731623;28;20214;-73
2022/05/22 21:34:10;;;;;;;2.95;0.60;;;;;;;;;;20741555;28;20209;-73
2022/05/22 21:44:20;;;;;;;0.65;0.50;;;;;;;;;;20746012;28;20235;-73
2022/05/22 21:54:22;;;;;;;1.63;0.68;;;;;;;;;;20752574;28;20285;-73
2022/05/22 22:04:24;;;;;;;1.20;0.60;;;;;;;;;;20745425;28;20217;-73
2022/05/22 22:14:26;;;;;;;1.40;0.50;;;;;;;;;;20750825;28;20211;-73
2022/05/22 22:24:30;;;;;;;1.00;0.50;;;;;;;;;;20739129;28;20211;-74
2022/05/22 22:34:33;;;;;;;0.93;0.50;;;;;;;;;;20731402;28;20208;-73
2022/05/22 22:44:38;;;;;;;1.00;0.60;;;;;;;;;;20739631;28;20208;-73
2022/05/22 23:05:00;;;;;;;1.08;0.85;;;;;;;;;;20735260;28;20225;-73
2022/05/22 23:15:02;;;;;;;2.15;0.70;;;;;;;;;;20749434;28;20219;-73
2022/05/22 23:25:04;;;;;;;2.90;1.13;;;21.70;99.90;;;;;;20747960;28;20603;-73
2022/05/22 23:35:07;;;;;;;1.27;0.63;;;17.50;99.90;;;;;;20753385;28;20269;-73
2022/05/22 23:45:10;;;;;;;1.90;0.60;;;;;;;;;;20752780;28;20209;-73
2022/05/22 23:55:12;;;;;;;1.20;0.60;;;;;;;;;;20750671;28;20269;-73
